createdAt,value
2019-06-08T00:00:09.553Z,0.00
2019-06-08T00:01:09.563Z,0.00
2019-06-08T00:02:09.524Z,0.00
2019-06-08T00:03:09.510Z,0.00
2019-06-08T00:04:09.497Z,0.00
2019-06-08T00:05:09.493Z,0.00
2019-06-08T00:06:09.492Z,0.00
2019-06-08T00:07:09.477Z,0.00
2019-06-08T00:08:09.462Z,0.00
2019-06-08T00:09:09.446Z,0.00
2019-06-08T00:10:09.429Z,0.00
2019-06-08T00:11:09.423Z,0.00
2019-06-08T00:12:09.419Z,0.00
2019-06-08T00:13:09.401Z,0.00
2019-06-08T00:14:09.390Z,0.00
2019-06-08T00:15:09.392Z,0.00
2019-06-08T00:16:09.377Z,0.00
2019-06-08T00:17:09.358Z,0.00
2019-06-08T00:18:09.346Z,0.00
2019-06-08T00:19:09.335Z,0.00
2019-06-08T00:20:09.328Z,0.00
2019-06-08T00:21:09.315Z,0.00
2019-06-08T00:22:09.320Z,0.00
2019-06-08T00:23:09.285Z,0.00
2019-06-08T00:24:09.273Z,0.00
2019-06-08T00:25:09.268Z,0.00
2019-06-08T00:26:09.267Z,0.00
2019-06-08T00:27:09.244Z,0.00
2019-06-08T00:28:09.228Z,0.00
2019-06-08T00:29:09.254Z,0.00
2019-06-08T00:30:09.206Z,0.00
2019-06-08T00:31:09.206Z,0.00
2019-06-08T00:32:09.183Z,0.00
2019-06-08T00:33:09.178Z,0.00
2019-06-08T00:34:09.163Z,0.00
2019-06-08T00:35:09.153Z,0.00
2019-06-08T00:36:09.155Z,0.00
2019-06-08T00:37:09.132Z,0.00
2019-06-08T00:38:09.122Z,0.00
2019-06-08T00:39:09.111Z,0.00
2019-06-08T00:40:09.094Z,0.00
2019-06-08T00:41:09.099Z,0.00
2019-06-08T00:42:09.081Z,0.00
2019-06-08T00:43:09.082Z,0.00
2019-06-08T00:44:09.053Z,0.00
2019-06-08T00:45:09.039Z,0.00
2019-06-08T00:46:09.054Z,0.00
2019-06-08T00:47:09.044Z,0.00
2019-06-08T00:48:09.005Z,0.00
2019-06-08T00:49:08.998Z,0.00
2019-06-08T00:50:08.987Z,0.00
2019-06-08T00:51:08.976Z,0.00
2019-06-08T00:52:08.973Z,0.00
2019-06-08T00:53:08.961Z,0.00
2019-06-08T00:54:08.942Z,0.00
2019-06-08T00:55:08.931Z,0.00
2019-06-08T00:56:08.920Z,0.00
2019-06-08T00:57:08.921Z,0.00
2019-06-08T00:58:08.909Z,0.00
2019-06-08T00:59:08.887Z,0.00
2019-06-08T01:00:10.741Z,0.00
2019-06-08T01:01:08.870Z,0.00
2019-06-08T01:02:08.850Z,0.00
2019-06-08T01:03:08.880Z,0.00
2019-06-08T01:04:08.838Z,0.00
2019-06-08T01:05:08.827Z,0.00
2019-06-08T01:06:08.810Z,0.00
2019-06-08T01:07:08.795Z,0.00
2019-06-08T01:08:08.795Z,0.00
2019-06-08T01:09:08.784Z,0.00
2019-06-08T01:10:08.758Z,0.00
2019-06-08T01:11:08.752Z,0.00
2019-06-08T01:12:08.745Z,0.00
2019-06-08T01:13:08.745Z,0.00
2019-06-08T01:14:08.724Z,0.00
2019-06-08T01:15:09.116Z,0.00
2019-06-08T01:16:08.696Z,0.00
2019-06-08T01:17:08.682Z,0.00
2019-06-08T01:18:08.713Z,0.00
2019-06-08T01:19:08.666Z,0.00
2019-06-08T01:20:08.655Z,0.00
2019-06-08T01:21:08.642Z,0.00
2019-06-08T01:22:08.655Z,0.00
2019-06-08T01:23:08.621Z,0.00
2019-06-08T01:24:08.622Z,0.00
2019-06-08T01:25:08.599Z,0.00
2019-06-08T01:26:08.584Z,0.00
2019-06-08T01:27:08.572Z,0.00
2019-06-08T01:28:08.573Z,0.00
2019-06-08T01:29:08.551Z,0.00
2019-06-08T01:30:08.546Z,0.00
2019-06-08T01:31:08.530Z,0.00
2019-06-08T01:32:08.522Z,0.00
2019-06-08T01:33:08.511Z,0.00
2019-06-08T01:34:08.498Z,0.00
2019-06-08T01:35:08.482Z,0.00
2019-06-08T01:36:08.482Z,0.00
2019-06-08T01:37:08.457Z,0.00
2019-06-08T01:38:08.451Z,0.00
2019-06-08T01:39:08.435Z,0.00
2019-06-08T01:40:08.429Z,0.00
2019-06-08T01:41:08.444Z,0.00
2019-06-08T01:42:08.401Z,0.00
2019-06-08T01:43:08.406Z,0.00
2019-06-08T01:44:08.442Z,0.00
2019-06-08T01:45:08.383Z,0.00
2019-06-08T01:46:08.356Z,0.00
2019-06-08T01:47:08.365Z,0.00
2019-06-08T01:48:19.449Z,0.00
2019-06-08T01:49:09.339Z,0.00
2019-06-08T01:50:08.312Z,0.00
2019-06-08T01:51:08.309Z,0.00
2019-06-08T01:52:08.303Z,0.00
2019-06-08T01:53:08.289Z,0.00
2019-06-08T01:54:08.283Z,0.00
2019-06-08T01:55:08.263Z,0.00
2019-06-08T01:56:08.251Z,0.00
2019-06-08T01:57:08.248Z,0.00
2019-06-08T01:58:08.232Z,0.00
2019-06-08T01:59:08.218Z,0.00
2019-06-08T02:00:29.189Z,0.00
2019-06-08T02:01:09.192Z,0.00
2019-06-08T02:02:08.195Z,0.00
2019-06-08T02:03:08.174Z,0.00
2019-06-08T02:04:08.177Z,0.00
2019-06-08T02:05:08.157Z,0.00
2019-06-08T02:06:08.141Z,0.00
2019-06-08T02:07:08.159Z,0.00
2019-06-08T02:08:08.112Z,0.00
2019-06-08T02:09:08.107Z,0.00
2019-06-08T02:10:08.100Z,0.00
2019-06-08T02:11:08.085Z,0.00
2019-06-08T02:12:08.071Z,0.00
2019-06-08T02:13:08.965Z,0.00
2019-06-08T02:14:08.056Z,0.00
2019-06-08T02:15:08.045Z,0.00
2019-06-08T02:16:08.073Z,0.00
2019-06-08T02:17:08.021Z,0.00
2019-06-08T02:18:08.004Z,0.00
2019-06-08T02:19:08.000Z,0.00
2019-06-08T02:20:07.988Z,0.00
2019-06-08T02:21:07.971Z,0.00
2019-06-08T02:22:07.997Z,0.00
2019-06-08T02:23:07.976Z,0.00
2019-06-08T02:24:07.943Z,0.00
2019-06-08T02:25:07.929Z,0.00
2019-06-08T02:26:07.923Z,0.00
2019-06-08T02:27:07.907Z,0.00
2019-06-08T02:28:07.895Z,0.00
2019-06-08T02:29:07.893Z,0.00
2019-06-08T02:30:07.873Z,0.00
2019-06-08T02:31:07.867Z,0.00
2019-06-08T02:32:07.856Z,0.00
2019-06-08T02:33:07.851Z,0.00
2019-06-08T02:34:07.840Z,0.00
2019-06-08T02:35:07.821Z,0.00
2019-06-08T02:36:07.813Z,0.00
2019-06-08T02:37:07.800Z,0.00
2019-06-08T02:38:07.782Z,0.00
2019-06-08T02:39:07.788Z,0.00
2019-06-08T02:40:07.789Z,0.00
2019-06-08T02:41:07.784Z,0.00
2019-06-08T02:42:07.743Z,0.00
2019-06-08T02:43:07.733Z,0.00
2019-06-08T02:44:07.718Z,0.00
2019-06-08T02:45:07.712Z,0.00
2019-06-08T02:46:07.695Z,0.00
2019-06-08T02:47:07.714Z,0.00
2019-06-08T02:48:07.672Z,0.00
2019-06-08T02:49:07.682Z,5.62
2019-06-08T02:50:07.654Z,0.00
2019-06-08T02:51:07.649Z,0.00
2019-06-08T02:52:07.672Z,0.00
2019-06-08T02:53:07.641Z,0.00
2019-06-08T02:54:07.606Z,0.00
2019-06-08T02:55:07.601Z,0.00
2019-06-08T02:56:07.595Z,0.00
2019-06-08T02:57:07.572Z,0.00
2019-06-08T02:58:07.566Z,5.62
2019-06-08T02:59:07.603Z,5.62
2019-06-08T03:00:07.538Z,5.62
2019-06-08T03:01:07.527Z,5.62
2019-06-08T03:02:07.537Z,11.25
2019-06-08T03:03:07.519Z,11.25
2019-06-08T03:04:07.499Z,11.25
2019-06-08T03:05:07.484Z,11.25
2019-06-08T03:06:07.519Z,11.25
2019-06-08T03:07:07.467Z,11.25
2019-06-08T03:08:07.449Z,11.25
2019-06-08T03:09:07.442Z,11.25
2019-06-08T03:10:07.438Z,11.25
2019-06-08T03:11:07.420Z,11.25
2019-06-08T03:12:07.423Z,16.88
2019-06-08T03:13:07.398Z,16.88
2019-06-08T03:14:07.401Z,16.88
2019-06-08T03:15:07.379Z,16.88
2019-06-08T03:16:07.376Z,16.88
2019-06-08T03:17:07.361Z,16.88
2019-06-08T03:18:07.336Z,16.88
2019-06-08T03:19:20.979Z,16.88
2019-06-08T03:20:08.319Z,22.50
2019-06-08T03:21:07.303Z,22.50
2019-06-08T03:22:10.783Z,28.12
2019-06-08T03:23:07.281Z,33.75
2019-06-08T03:24:07.285Z,33.75
2019-06-08T03:25:07.263Z,33.75
2019-06-08T03:26:07.249Z,33.75
2019-06-08T03:27:07.238Z,28.12
2019-06-08T03:28:07.235Z,28.12
2019-06-08T03:29:07.239Z,22.50
2019-06-08T03:30:16.268Z,22.50
2019-06-08T03:31:08.200Z,22.50
2019-06-08T03:32:07.194Z,22.50
2019-06-08T03:33:07.169Z,22.50
2019-06-08T03:34:07.157Z,28.12
2019-06-08T03:35:07.148Z,28.12
2019-06-08T03:36:07.269Z,28.12
2019-06-08T03:37:07.140Z,28.12
2019-06-08T03:38:07.113Z,28.12
2019-06-08T03:39:07.106Z,28.12
2019-06-08T03:40:07.105Z,28.12
2019-06-08T03:41:07.081Z,33.75
2019-06-08T03:42:07.102Z,33.75
2019-06-08T03:43:07.065Z,39.38
2019-06-08T03:44:07.061Z,39.38
2019-06-08T03:45:07.040Z,39.38
2019-06-08T03:46:07.023Z,39.38
2019-06-08T03:47:07.014Z,39.38
2019-06-08T03:48:07.014Z,39.38
2019-06-08T03:49:06.992Z,39.38
2019-06-08T03:50:06.977Z,39.38
2019-06-08T03:51:06.973Z,33.75
2019-06-08T03:52:06.976Z,28.12
2019-06-08T03:53:06.969Z,28.12
2019-06-08T03:54:06.936Z,28.12
2019-06-08T03:55:06.921Z,39.38
2019-06-08T03:56:06.916Z,56.25
2019-06-08T03:57:06.901Z,67.50
2019-06-08T03:58:06.894Z,73.12
2019-06-08T03:59:06.885Z,73.12
2019-06-08T04:00:13.031Z,78.75
2019-06-08T04:01:07.859Z,78.75
2019-06-08T04:02:06.846Z,78.75
2019-06-08T04:03:06.845Z,84.38
2019-06-08T04:04:06.856Z,95.62
2019-06-08T04:05:06.820Z,101.25
2019-06-08T04:06:06.815Z,101.25
2019-06-08T04:07:06.788Z,101.25
2019-06-08T04:08:06.782Z,101.25
2019-06-08T04:09:06.765Z,95.62
2019-06-08T04:10:06.763Z,95.62
2019-06-08T04:11:06.749Z,95.62
2019-06-08T04:12:06.731Z,95.62
2019-06-08T04:13:10.884Z,90.00
2019-06-08T04:14:06.709Z,84.38
2019-06-08T04:15:06.724Z,84.38
2019-06-08T04:16:06.687Z,78.75
2019-06-08T04:17:06.681Z,73.12
2019-06-08T04:18:06.678Z,67.50
2019-06-08T04:19:06.667Z,67.50
2019-06-08T04:20:11.561Z,90.00
2019-06-08T04:21:07.634Z,101.25
2019-06-08T04:22:06.625Z,112.50
2019-06-08T04:23:06.619Z,135.00
2019-06-08T04:24:06.612Z,135.00
2019-06-08T04:25:06.589Z,146.25
2019-06-08T04:26:06.579Z,146.25
2019-06-08T04:27:06.572Z,146.25
2019-06-08T04:28:06.582Z,140.62
2019-06-08T04:29:06.551Z,135.00
2019-06-08T04:30:06.530Z,129.38
2019-06-08T04:31:06.586Z,129.38
2019-06-08T04:32:06.510Z,129.38
2019-06-08T04:33:06.498Z,123.75
2019-06-08T04:34:06.496Z,123.75
2019-06-08T04:35:06.482Z,123.75
2019-06-08T04:36:06.474Z,135.00
2019-06-08T04:37:06.492Z,146.25
2019-06-08T04:38:06.443Z,151.88
2019-06-08T04:39:06.439Z,157.50
2019-06-08T04:40:06.421Z,157.50
2019-06-08T04:41:06.416Z,157.50
2019-06-08T04:42:06.403Z,146.25
2019-06-08T04:43:06.396Z,140.62
2019-06-08T04:44:06.410Z,129.38
2019-06-08T04:45:06.364Z,135.00
2019-06-08T04:46:06.357Z,140.62
2019-06-08T04:47:06.362Z,146.25
2019-06-08T04:48:09.562Z,163.12
2019-06-08T04:49:06.318Z,168.75
2019-06-08T04:50:21.997Z,180.00
2019-06-08T04:51:07.302Z,180.00
2019-06-08T04:52:06.286Z,174.38
2019-06-08T04:53:06.290Z,157.50
2019-06-08T04:54:06.270Z,146.25
2019-06-08T04:55:06.256Z,140.62
2019-06-08T04:56:06.255Z,157.50
2019-06-08T04:57:06.238Z,180.00
2019-06-08T04:58:06.247Z,208.12
2019-06-08T04:59:06.214Z,225.00
2019-06-08T05:00:11.745Z,247.50
2019-06-08T05:01:07.186Z,281.25
2019-06-08T05:02:06.181Z,309.38
2019-06-08T05:03:06.170Z,337.50
2019-06-08T05:04:06.237Z,365.62
2019-06-08T05:05:06.146Z,360.00
2019-06-08T05:06:06.134Z,326.25
2019-06-08T05:07:06.119Z,286.88
2019-06-08T05:08:06.117Z,264.38
2019-06-08T05:09:06.096Z,275.62
2019-06-08T05:10:06.094Z,320.62
2019-06-08T05:11:06.079Z,331.88
2019-06-08T05:12:06.063Z,331.88
2019-06-08T05:13:06.059Z,309.38
2019-06-08T05:14:06.045Z,315.00
2019-06-08T05:15:06.039Z,315.00
2019-06-08T05:16:06.022Z,326.25
2019-06-08T05:17:06.023Z,348.75
2019-06-08T05:18:06.003Z,376.88
2019-06-08T05:19:05.991Z,382.50
2019-06-08T05:20:05.980Z,382.50
2019-06-08T05:21:05.974Z,371.25
2019-06-08T05:22:05.970Z,348.75
2019-06-08T05:23:05.944Z,326.25
2019-06-08T05:24:05.928Z,303.75
2019-06-08T05:25:05.916Z,286.88
2019-06-08T05:26:05.916Z,270.00
2019-06-08T05:27:05.900Z,236.25
2019-06-08T05:28:05.895Z,208.12
2019-06-08T05:29:05.876Z,202.50
2019-06-08T05:30:08.675Z,208.12
2019-06-08T05:31:05.854Z,213.75
2019-06-08T05:32:05.855Z,208.12
2019-06-08T05:33:05.877Z,208.12
2019-06-08T05:34:05.816Z,208.12
2019-06-08T05:35:05.821Z,213.75
2019-06-08T05:36:05.800Z,213.75
2019-06-08T05:37:05.796Z,213.75
2019-06-08T05:38:05.784Z,213.75
2019-06-08T05:39:05.777Z,213.75
2019-06-08T05:40:05.767Z,219.38
2019-06-08T05:41:05.738Z,219.38
2019-06-08T05:42:05.732Z,219.38
2019-06-08T05:43:05.726Z,230.62
2019-06-08T05:44:05.703Z,230.62
2019-06-08T05:45:05.709Z,225.00
2019-06-08T05:46:05.691Z,219.38
2019-06-08T05:47:05.671Z,213.75
2019-06-08T05:48:05.666Z,219.38
2019-06-08T05:49:05.648Z,219.38
2019-06-08T05:50:05.640Z,225.00
2019-06-08T05:51:05.636Z,225.00
2019-06-08T05:52:05.616Z,230.62
2019-06-08T05:53:05.615Z,230.62
2019-06-08T05:54:05.593Z,241.88
2019-06-08T05:55:05.580Z,247.50
2019-06-08T05:56:05.582Z,258.75
2019-06-08T05:57:05.561Z,275.62
2019-06-08T05:58:05.549Z,275.62
2019-06-08T05:59:05.548Z,281.25
2019-06-08T06:00:09.051Z,275.62
2019-06-08T06:01:05.522Z,264.38
2019-06-08T06:02:05.504Z,258.75
2019-06-08T06:03:05.492Z,253.12
2019-06-08T06:04:05.481Z,247.50
2019-06-08T06:05:05.475Z,247.50
2019-06-08T06:06:05.507Z,247.50
2019-06-08T06:07:05.455Z,253.12
2019-06-08T06:08:18.024Z,253.12
2019-06-08T06:09:06.428Z,253.12
2019-06-08T06:10:05.422Z,258.75
2019-06-08T06:11:05.402Z,264.38
2019-06-08T06:12:05.403Z,275.62
2019-06-08T06:13:05.386Z,303.75
2019-06-08T06:14:05.375Z,326.25
2019-06-08T06:15:05.362Z,354.38
2019-06-08T06:16:05.368Z,371.25
2019-06-08T06:17:05.362Z,416.25
2019-06-08T06:18:05.327Z,461.25
2019-06-08T06:19:05.318Z,528.75
2019-06-08T06:20:05.305Z,579.38
2019-06-08T06:21:11.253Z,601.88
2019-06-08T06:22:06.304Z,601.88
2019-06-08T06:23:05.273Z,635.62
2019-06-08T06:24:05.265Z,680.62
2019-06-08T06:25:05.256Z,720.00
2019-06-08T06:26:05.242Z,720.00
2019-06-08T06:27:05.228Z,725.62
2019-06-08T06:28:06.426Z,714.38
2019-06-08T06:29:05.211Z,708.75
2019-06-08T06:30:05.220Z,703.12
2019-06-08T06:31:05.180Z,697.50
2019-06-08T06:32:05.170Z,708.75
2019-06-08T06:33:05.177Z,742.50
2019-06-08T06:34:05.149Z,787.50
2019-06-08T06:35:05.143Z,810.00
2019-06-08T06:36:05.128Z,826.88
2019-06-08T06:37:05.115Z,815.62
2019-06-08T06:38:05.104Z,759.38
2019-06-08T06:39:05.125Z,680.62
2019-06-08T06:40:05.088Z,585.00
2019-06-08T06:41:05.073Z,545.62
2019-06-08T06:42:05.066Z,450.00
2019-06-08T06:43:05.049Z,360.00
2019-06-08T06:44:05.053Z,315.00
2019-06-08T06:45:05.024Z,292.50
2019-06-08T06:46:05.022Z,320.62
2019-06-08T06:47:05.029Z,286.88
2019-06-08T06:48:04.993Z,331.88
2019-06-08T06:49:04.983Z,331.88
2019-06-08T06:50:04.976Z,343.12
2019-06-08T06:51:04.959Z,354.38
2019-06-08T06:52:04.966Z,343.12
2019-06-08T06:53:04.951Z,360.00
2019-06-08T06:54:04.926Z,382.50
2019-06-08T06:55:04.922Z,433.12
2019-06-08T06:56:04.904Z,466.88
2019-06-08T06:57:04.919Z,540.00
2019-06-08T06:58:04.893Z,618.75
2019-06-08T06:59:04.878Z,675.00
2019-06-08T07:00:04.858Z,720.00
2019-06-08T07:01:04.848Z,742.50
2019-06-08T07:02:04.835Z,798.75
2019-06-08T07:03:04.865Z,849.38
2019-06-08T07:04:04.813Z,855.00
2019-06-08T07:05:04.808Z,843.75
2019-06-08T07:06:04.789Z,821.25
2019-06-08T07:07:04.795Z,871.88
2019-06-08T07:08:04.764Z,939.38
2019-06-08T07:09:04.917Z,973.12
2019-06-08T07:10:04.753Z,961.88
2019-06-08T07:11:04.730Z,922.50
2019-06-08T07:12:04.721Z,894.38
2019-06-08T07:13:04.720Z,838.12
2019-06-08T07:14:04.725Z,731.25
2019-06-08T07:15:04.696Z,697.50
2019-06-08T07:16:17.764Z,697.50
2019-06-08T07:17:05.664Z,703.12
2019-06-08T07:18:04.675Z,703.12
2019-06-08T07:19:04.641Z,720.00
2019-06-08T07:20:04.666Z,759.38
2019-06-08T07:21:04.627Z,759.38
2019-06-08T07:22:04.613Z,753.75
2019-06-08T07:23:04.597Z,708.75
2019-06-08T07:24:04.590Z,691.88
2019-06-08T07:25:04.578Z,663.75
2019-06-08T07:26:04.573Z,646.88
2019-06-08T07:27:07.387Z,669.38
2019-06-08T07:28:04.584Z,635.62
2019-06-08T07:29:04.542Z,658.12
2019-06-08T07:30:04.560Z,675.00
2019-06-08T07:31:04.527Z,669.38
2019-06-08T07:32:04.502Z,675.00
2019-06-08T07:33:04.488Z,697.50
2019-06-08T07:34:04.480Z,725.62
2019-06-08T07:35:04.471Z,748.12
2019-06-08T07:36:04.465Z,810.00
2019-06-08T07:37:04.454Z,883.12
2019-06-08T07:38:04.482Z,928.12
2019-06-08T07:39:04.428Z,928.12
2019-06-08T07:40:04.409Z,928.12
2019-06-08T07:41:04.413Z,900.00
2019-06-08T07:42:04.391Z,860.62
2019-06-08T07:43:04.372Z,793.12
2019-06-08T07:44:04.379Z,753.75
2019-06-08T07:45:04.356Z,720.00
2019-06-08T07:46:04.358Z,697.50
2019-06-08T07:47:04.330Z,658.12
2019-06-08T07:48:04.317Z,630.00
2019-06-08T07:49:04.305Z,607.50
2019-06-08T07:50:04.863Z,551.25
2019-06-08T07:51:04.300Z,511.88
2019-06-08T07:52:10.368Z,461.25
2019-06-08T07:53:05.266Z,405.00
2019-06-08T07:54:04.281Z,348.75
2019-06-08T07:55:04.247Z,303.75
2019-06-08T07:56:04.233Z,286.88
2019-06-08T07:57:04.218Z,292.50
2019-06-08T07:58:04.224Z,309.38
2019-06-08T07:59:04.200Z,326.25
2019-06-08T08:00:09.058Z,343.12
2019-06-08T08:01:08.152Z,365.62
2019-06-08T08:02:04.167Z,388.12
2019-06-08T08:03:04.173Z,427.50
2019-06-08T08:04:04.164Z,461.25
2019-06-08T08:05:04.134Z,500.62
2019-06-08T08:06:04.122Z,517.50
2019-06-08T08:07:04.116Z,523.12
2019-06-08T08:08:04.098Z,545.62
2019-06-08T08:09:04.111Z,562.50
2019-06-08T08:10:04.116Z,579.38
2019-06-08T08:11:04.060Z,601.88
2019-06-08T08:12:04.062Z,618.75
2019-06-08T08:13:04.043Z,680.62
2019-06-08T08:14:04.044Z,759.38
2019-06-08T08:15:04.021Z,787.50
2019-06-08T08:16:04.012Z,810.00
2019-06-08T08:17:04.028Z,798.75
2019-06-08T08:18:03.991Z,787.50
2019-06-08T08:19:03.974Z,731.25
2019-06-08T08:20:03.956Z,669.38
2019-06-08T08:21:14.381Z,624.38
2019-06-08T08:22:19.468Z,556.88
2019-06-08T08:23:06.920Z,517.50
2019-06-08T08:24:03.917Z,483.75
2019-06-08T08:25:05.091Z,461.25
2019-06-08T08:26:03.888Z,433.12
2019-06-08T08:27:04.007Z,399.38
2019-06-08T08:28:03.901Z,371.25
2019-06-08T08:29:03.866Z,354.38
2019-06-08T08:30:03.872Z,360.00
2019-06-08T08:31:03.834Z,382.50
2019-06-08T08:32:03.825Z,410.62
2019-06-08T08:33:03.808Z,450.00
2019-06-08T08:34:05.714Z,495.00
2019-06-08T08:35:03.792Z,511.88
2019-06-08T08:36:03.793Z,528.75
2019-06-08T08:37:06.368Z,551.25
2019-06-08T08:38:05.426Z,579.38
2019-06-08T08:39:03.757Z,596.25
2019-06-08T08:40:03.775Z,607.50
2019-06-08T08:41:07.240Z,607.50
2019-06-08T08:42:05.326Z,652.50
2019-06-08T08:43:03.705Z,703.12
2019-06-08T08:44:04.840Z,708.75
2019-06-08T08:45:05.349Z,736.88
2019-06-08T08:46:03.674Z,770.62
2019-06-08T08:47:03.667Z,793.12
2019-06-08T08:48:20.015Z,821.25
2019-06-08T08:49:09.396Z,855.00
2019-06-08T08:50:04.618Z,866.25
2019-06-08T08:51:03.925Z,838.12
2019-06-08T08:52:03.606Z,731.25
2019-06-08T08:53:03.608Z,652.50
2019-06-08T08:54:05.438Z,585.00
2019-06-08T08:55:03.574Z,534.38
2019-06-08T08:56:03.559Z,461.25
2019-06-08T08:57:05.241Z,382.50
2019-06-08T08:58:03.531Z,337.50
2019-06-08T08:59:03.533Z,309.38
2019-06-08T09:00:05.146Z,298.12
2019-06-08T09:01:03.927Z,320.62
2019-06-08T09:02:03.523Z,348.75
2019-06-08T09:03:22.109Z,376.88
2019-06-08T09:04:05.265Z,393.75
2019-06-08T09:05:03.977Z,416.25
2019-06-08T09:06:04.106Z,438.75
2019-06-08T09:07:07.744Z,472.50
2019-06-08T09:08:04.430Z,495.00
2019-06-08T09:09:03.758Z,506.25
2019-06-08T09:10:03.863Z,500.62
2019-06-08T09:11:03.854Z,478.12
2019-06-08T09:12:04.543Z,466.88
2019-06-08T09:13:04.743Z,438.75
2019-06-08T09:14:07.117Z,421.88
2019-06-08T09:15:04.376Z,433.12
2019-06-08T09:16:04.374Z,466.88
2019-06-08T09:17:03.695Z,495.00
2019-06-08T09:18:03.863Z,511.88
2019-06-08T09:19:04.453Z,517.50
2019-06-08T09:20:03.883Z,517.50
2019-06-08T09:21:04.235Z,506.25
2019-06-08T09:22:04.036Z,478.12
2019-06-08T09:23:12.813Z,444.38
2019-06-08T09:24:04.345Z,421.88
2019-06-08T09:25:04.504Z,427.50
2019-06-08T09:26:09.284Z,427.50
2019-06-08T09:27:04.484Z,450.00
2019-06-08T09:28:04.814Z,483.75
2019-06-08T09:29:07.314Z,517.50
2019-06-08T09:30:04.759Z,540.00
2019-06-08T09:31:04.157Z,551.25
2019-06-08T09:32:03.647Z,568.12
2019-06-08T09:33:04.300Z,585.00
2019-06-08T09:34:09.392Z,630.00
2019-06-08T09:35:04.834Z,708.75
2019-06-08T09:36:04.917Z,776.25
2019-06-08T09:37:04.976Z,866.25
2019-06-08T09:38:04.991Z,911.25
2019-06-08T09:39:04.719Z,933.75
2019-06-08T09:40:03.737Z,928.12
2019-06-08T09:41:04.927Z,894.38
2019-06-08T09:42:04.867Z,855.00
2019-06-08T09:43:08.494Z,770.62
2019-06-08T09:44:05.768Z,725.62
2019-06-08T09:45:05.356Z,663.75
2019-06-08T09:46:05.272Z,646.88
2019-06-08T09:47:09.463Z,658.12
2019-06-08T09:48:05.669Z,663.75
2019-06-08T09:49:07.590Z,635.62
2019-06-08T09:50:05.581Z,596.25
2019-06-08T09:51:05.650Z,556.88
2019-06-08T09:52:05.116Z,556.88
2019-06-08T09:53:22.353Z,573.75
2019-06-08T09:54:06.122Z,613.12
2019-06-08T09:55:05.821Z,624.38
2019-06-08T09:56:05.377Z,590.62
2019-06-08T09:57:04.436Z,573.75
2019-06-08T09:58:07.787Z,585.00
2019-06-08T09:59:07.129Z,607.50
2019-06-08T10:00:14.461Z,635.62
2019-06-08T10:01:05.987Z,691.88
2019-06-08T10:02:07.418Z,748.12
2019-06-08T10:03:06.150Z,765.00
2019-06-08T10:04:04.556Z,787.50
2019-06-08T10:05:04.475Z,821.25
2019-06-08T10:06:06.866Z,888.75
2019-06-08T10:07:04.304Z,945.00
2019-06-08T10:08:04.136Z,967.50
2019-06-08T10:09:02.870Z,995.62
2019-06-08T10:10:04.444Z,1063.12
2019-06-08T10:11:05.640Z,1153.12
2019-06-08T10:12:04.580Z,1282.50
2019-06-08T10:13:05.369Z,1344.38
2019-06-08T10:14:06.329Z,1248.75
2019-06-08T10:15:04.731Z,1080.00
2019-06-08T10:16:05.371Z,1023.75
2019-06-08T10:17:03.945Z,984.38
2019-06-08T10:18:03.310Z,984.38
2019-06-08T10:19:05.217Z,1001.25
2019-06-08T10:20:03.499Z,1018.12
2019-06-08T10:21:03.452Z,956.25
2019-06-08T10:22:02.999Z,956.25
2019-06-08T10:23:04.825Z,956.25
2019-06-08T10:24:04.773Z,911.25
2019-06-08T10:25:05.642Z,849.38
2019-06-08T10:26:04.781Z,759.38
2019-06-08T10:27:03.533Z,770.62
2019-06-08T10:28:10.109Z,753.75
2019-06-08T10:29:05.250Z,686.25
2019-06-08T10:30:05.870Z,635.62
2019-06-08T10:31:03.725Z,551.25
2019-06-08T10:32:03.681Z,500.62
2019-06-08T10:33:04.723Z,511.88
2019-06-08T10:34:03.876Z,534.38
2019-06-08T10:35:04.264Z,528.75
2019-06-08T10:36:05.277Z,500.62
2019-06-08T10:37:07.866Z,483.75
2019-06-08T10:38:07.937Z,489.38
2019-06-08T10:39:07.305Z,517.50
2019-06-08T10:40:05.449Z,573.75
2019-06-08T10:41:10.773Z,646.88
2019-06-08T10:42:06.132Z,742.50
2019-06-08T10:43:03.391Z,826.88
2019-06-08T10:44:03.467Z,871.88
2019-06-08T10:45:06.501Z,894.38
2019-06-08T10:46:09.970Z,855.00
2019-06-08T10:47:05.526Z,849.38
2019-06-08T10:48:03.262Z,888.75
2019-06-08T10:49:04.041Z,894.38
2019-06-08T10:50:07.489Z,888.75
2019-06-08T10:51:05.433Z,916.88
2019-06-08T10:52:04.312Z,1018.12
2019-06-08T10:53:04.090Z,1186.88
2019-06-08T10:54:02.280Z,1237.50
2019-06-08T10:55:04.643Z,1237.50
2019-06-08T10:56:03.467Z,1288.12
2019-06-08T10:57:05.060Z,1479.38
2019-06-08T10:58:02.419Z,1636.88
2019-06-08T10:59:04.752Z,2008.12
2019-06-08T11:00:12.274Z,3178.12
2019-06-08T11:01:05.800Z,3622.50
2019-06-08T11:02:06.725Z,3611.25
2019-06-08T11:03:05.316Z,5096.25
2019-06-08T11:04:03.293Z,5664.38
2019-06-08T11:05:04.730Z,2205.00
2019-06-08T11:06:04.250Z,5118.75
2019-06-08T11:07:07.190Z,3813.75
2019-06-08T11:08:04.177Z,2317.50
2019-06-08T11:09:05.697Z,5748.75
2019-06-08T11:10:03.932Z,2638.12
2019-06-08T11:11:02.949Z,2728.12
2019-06-08T11:12:03.241Z,1738.12
2019-06-08T11:13:05.148Z,1845.00
2019-06-08T11:14:05.103Z,1726.88
2019-06-08T11:15:03.549Z,1816.88
2019-06-08T11:16:02.810Z,1996.88
2019-06-08T11:17:02.823Z,1670.62
2019-06-08T11:18:05.024Z,2019.38
2019-06-08T11:19:04.266Z,3420.00
2019-06-08T11:20:03.002Z,1687.50
2019-06-08T11:21:03.314Z,1383.75
2019-06-08T11:22:05.003Z,1265.62
2019-06-08T11:23:03.606Z,1231.88
2019-06-08T11:24:15.507Z,1451.25
2019-06-08T11:25:04.404Z,1136.25
2019-06-08T11:26:04.651Z,1018.12
2019-06-08T11:27:03.521Z,1074.38
2019-06-08T11:28:02.206Z,1265.62
2019-06-08T11:29:02.937Z,1625.62
2019-06-08T11:30:09.930Z,3960.00
2019-06-08T11:31:03.967Z,5366.25
2019-06-08T11:32:02.138Z,1816.88
2019-06-08T11:33:02.137Z,2221.88
2019-06-08T11:34:03.614Z,3206.25
2019-06-08T11:35:02.108Z,3667.50
2019-06-08T11:36:05.795Z,4888.12
2019-06-08T11:37:03.601Z,4640.62
2019-06-08T11:38:02.237Z,5051.25
2019-06-08T11:39:02.573Z,5208.75
2019-06-08T11:40:02.140Z,4803.75
2019-06-08T11:41:04.320Z,4201.88
2019-06-08T11:42:02.288Z,4916.25
2019-06-08T11:43:02.290Z,4348.12
2019-06-08T11:44:03.456Z,5006.25
2019-06-08T11:45:02.292Z,5079.38
2019-06-08T11:46:02.594Z,5445.00
2019-06-08T11:47:02.500Z,2649.38
2019-06-08T11:48:02.718Z,2491.88
2019-06-08T11:49:04.896Z,2604.38
2019-06-08T11:50:02.870Z,4674.38
2019-06-08T11:51:02.587Z,3313.12
2019-06-08T11:52:02.578Z,3150.00
2019-06-08T11:53:02.353Z,2615.62
2019-06-08T11:54:02.901Z,4955.62
2019-06-08T11:55:03.489Z,2109.38
2019-06-08T11:56:02.680Z,2008.12
2019-06-08T11:57:02.756Z,2013.75
2019-06-08T11:58:01.549Z,1974.38
2019-06-08T11:59:01.534Z,1901.25
2019-06-08T12:00:09.227Z,2463.75
2019-06-08T12:01:04.741Z,1580.62
2019-06-08T12:02:01.869Z,1411.88
2019-06-08T12:03:02.216Z,1265.62
2019-06-08T12:04:01.610Z,1186.88
2019-06-08T12:05:01.778Z,1198.12
2019-06-08T12:06:02.216Z,1192.50
2019-06-08T12:07:02.145Z,1158.75
2019-06-08T12:08:02.846Z,1141.88
2019-06-08T12:09:02.662Z,1119.38
2019-06-08T12:10:03.000Z,1096.88
2019-06-08T12:11:02.669Z,1057.50
2019-06-08T12:12:02.475Z,1057.50
2019-06-08T12:13:02.380Z,1113.75
2019-06-08T12:14:02.662Z,1237.50
2019-06-08T12:15:01.359Z,1434.38
2019-06-08T12:16:01.346Z,1614.38
2019-06-08T12:17:01.536Z,1507.50
2019-06-08T12:18:01.324Z,1710.00
2019-06-08T12:19:01.309Z,1575.00
2019-06-08T12:20:01.313Z,1451.25
2019-06-08T12:21:01.633Z,1338.75
2019-06-08T12:22:01.275Z,1305.00
2019-06-08T12:23:01.264Z,1316.25
2019-06-08T12:24:01.298Z,1411.88
2019-06-08T12:25:01.261Z,1569.38
2019-06-08T12:26:01.240Z,1625.62
2019-06-08T12:27:10.257Z,1541.25
2019-06-08T12:28:02.216Z,1580.62
2019-06-08T12:29:01.482Z,1670.62
2019-06-08T12:30:08.033Z,1856.25
2019-06-08T12:31:02.210Z,2430.00
2019-06-08T12:32:01.169Z,4708.12
2019-06-08T12:33:01.156Z,4758.75
2019-06-08T12:34:01.149Z,3718.12
2019-06-08T12:35:01.139Z,3099.38
2019-06-08T12:36:01.123Z,4072.50
2019-06-08T12:37:01.121Z,3043.12
2019-06-08T12:38:01.100Z,3622.50